RCTP

Taiwan Taoyuan International Airport

Taipei, Taiwan
TAF RCTP 192300Z 2000/2106 29005KT 9999 FEW015 TEMPO 2002/2008 34005KT BECMG 2010/2012 15005KT BECMG 2100/2102 28005KT
Issued Valid From Valid To
Sep-19 @ 23:00 UTC
(2 hours ago)
Sep-20 @ 00:00 UTC
(43 minutes ago)
Sep-21 @ 06:00 UTC
(-1 days ago)
Sep-20 @ 00:00 to Sep-20 @ 10:00
TAF RCTP 192300Z 2000/2106 29005KT 9999 FEW015
Wind Visibility Clouds
290° at 5 knots 10,000+ meters
  • Few at 1,500' AGL
Temporary Sep-20 @ 02:00 to Sep-20 @ 08:00
TEMPO 2002/2008 34005KT
Wind
340° at 5 knots
Becoming Sep-20 @ 10:00 to Sep-21 @ 00:00
BECMG 2010/2012 15005KT
Wind Visibility Clouds
150° at 5 knots 10,000+ meters
  • Few at 1,500' AGL
Becoming Sep-21 @ 00:00 to Sep-21 @ 06:00
BECMG 2100/2102 28005KT
Wind Visibility Clouds
280° at 5 knots 10,000+ meters
  • Few at 1,500' AGL
TAF RCTP 192300Z 2000/2106 29005KT 9999 FEW015 TEMPO 2002/2008 34005KT BECMG 2010/2012 15005KT BECMG 2100/2102 28005KT
Issued Sep-19 @ 23:00 UTC
(2 hours ago)
Valid From Sep-20 @ 00:00 UTC
(43 minutes ago)
Valid To Sep-21 @ 06:00 UTC
(-1 days ago)
Sep-20 @ 00:00 - Sep-20 @ 10:00
Wind Visibility
290° at 5 knots 10,000+ meters
Clouds
  • Few at 1,500' AGL
Temporary Sep-20 @ 02:00 - Sep-20 @ 08:00
Wind
340° at 5 knots
Becoming Sep-20 @ 10:00 - Sep-21 @ 00:00
Wind Visibility
150° at 5 knots 10,000+ meters
Clouds
  • Few at 1,500' AGL
Becoming Sep-21 @ 00:00 - Sep-21 @ 06:00
Wind Visibility
280° at 5 knots 10,000+ meters
Clouds
  • Few at 1,500' AGL